createdAt,value
2017-11-08T00:01:08.308Z,1012.59
2017-11-08T00:02:17.602Z,1012.54
2017-11-08T00:03:26.579Z,1012.53
2017-11-08T00:04:35.553Z,1012.53
2017-11-08T00:05:44.534Z,1012.54
2017-11-08T00:06:53.827Z,1012.57
2017-11-08T00:08:03.116Z,1012.59
2017-11-08T00:09:12.077Z,1012.59
2017-11-08T00:10:21.382Z,1012.63
2017-11-08T00:11:30.341Z,1012.6
2017-11-08T00:12:39.654Z,1012.63
2017-11-08T00:13:48.355Z,1012.64
2017-11-08T00:14:57.310Z,1012.65
2017-11-08T00:16:06.280Z,1012.63
2017-11-08T00:17:15.296Z,1012.59
2017-11-08T00:18:24.597Z,1012.59
2017-11-08T00:19:33.237Z,1012.58
2017-11-08T00:20:42.863Z,1012.56
2017-11-08T00:21:52.161Z,1012.58
2017-11-08T00:23:00.798Z,1012.6
2017-11-08T00:24:09.441Z,1012.59
2017-11-08T00:25:18.407Z,1012.6
2017-11-08T00:26:28.026Z,1012.61
2017-11-08T00:27:36.665Z,1012.58
2017-11-08T00:28:45.631Z,1012.61
2017-11-08T00:29:54.919Z,1012.62
2017-11-08T00:31:04.204Z,1012.62
2017-11-08T00:32:12.840Z,1012.65
2017-11-08T00:33:22.140Z,1012.65
2017-11-08T00:34:30.802Z,1012.63
2017-11-08T00:35:39.766Z,1012.6
2017-11-08T00:36:48.734Z,1012.61
2017-11-08T00:37:57.388Z,1012.6
2017-11-08T00:39:06.680Z,1012.6
2017-11-08T00:40:15.649Z,1012.57
2017-11-08T00:41:24.618Z,1012.61
2017-11-08T00:42:33.902Z,1012.58
2017-11-08T00:43:43.202Z,1012.59
2017-11-08T00:44:52.169Z,1012.58
2017-11-08T00:46:01.470Z,1012.63
2017-11-08T00:47:10.120Z,1012.6
2017-11-08T00:48:19.413Z,1012.57
2017-11-08T00:49:28.383Z,1012.59
2017-11-08T00:50:37.681Z,1012.55
2017-11-08T00:51:46.648Z,1012.56
2017-11-08T00:52:55.314Z,1012.51
2017-11-08T00:54:04.279Z,1012.48
2017-11-08T00:55:13.573Z,1012.46
2017-11-08T00:56:22.533Z,1012.43
2017-11-08T00:57:31.829Z,1012.41
2017-11-08T00:58:40.467Z,1012.43
2017-11-08T00:59:50.118Z,1012.36
2017-11-08T01:00:59.106Z,1012.37
2017-11-08T01:02:08.078Z,1012.34
2017-11-08T01:03:17.376Z,1012.44
2017-11-08T01:04:26.674Z,1012.46
2017-11-08T01:05:36.289Z,1012.53
2017-11-08T01:06:45.267Z,1012.54
2017-11-08T01:07:54.244Z,1012.58
2017-11-08T01:09:03.542Z,1012.58
2017-11-08T01:10:12.200Z,1012.59
2017-11-08T01:11:21.485Z,1012.56
2017-11-08T01:12:30.766Z,1012.49
2017-11-08T01:13:40.065Z,1012.52
2017-11-08T01:14:49.025Z,1012.47
2017-11-08T01:15:58.302Z,1012.47
2017-11-08T01:17:07.274Z,1012.49
2017-11-08T01:18:16.576Z,1012.41
2017-11-08T01:19:25.542Z,1012.37
2017-11-08T01:20:34.499Z,1012.33
2017-11-08T01:21:43.463Z,1012.36
2017-11-08T01:22:52.101Z,1012.34
2017-11-08T01:24:01.391Z,1012.33
2017-11-08T01:25:11.011Z,1012.37
2017-11-08T01:26:19.979Z,1012.3
2017-11-08T01:27:29.271Z,1012.26
2017-11-08T01:28:37.905Z,1012.22
2017-11-08T01:29:47.522Z,1012.2
2017-11-08T01:30:57.154Z,1012.18
2017-11-08T01:32:05.800Z,1012.19
2017-11-08T01:33:15.447Z,1012.2
2017-11-08T01:34:24.729Z,1012.2
2017-11-08T01:35:34.352Z,1012.21
2017-11-08T01:36:43.654Z,1012.24
2017-11-08T01:37:52.282Z,1012.27
2017-11-08T01:39:01.262Z,1012.24
2017-11-08T01:40:10.877Z,1012.29
2017-11-08T01:41:19.846Z,1012.27
2017-11-08T01:42:28.804Z,1012.23
2017-11-08T01:43:37.437Z,1012.23
2017-11-08T01:44:46.087Z,1012.21
2017-11-08T01:45:55.387Z,1012.25
2017-11-08T01:47:04.667Z,1012.21
2017-11-08T01:48:13.633Z,1012.2
2017-11-08T01:49:22.927Z,1012.24
2017-11-08T01:50:32.567Z,1012.21
2017-11-08T01:51:41.262Z,1012.17
2017-11-08T01:52:50.886Z,1012.23
2017-11-08T01:54:00.513Z,1012.23
2017-11-08T01:55:10.169Z,1012.25
2017-11-08T01:56:19.473Z,1012.26
2017-11-08T01:57:28.163Z,1012.25
2017-11-08T01:58:37.457Z,1012.23
2017-11-08T01:59:46.775Z,1012.26
2017-11-08T02:00:56.072Z,1012.27
2017-11-08T02:02:05.712Z,1012.36
2017-11-08T02:03:14.698Z,1012.34
2017-11-08T02:04:23.994Z,1012.35
2017-11-08T02:05:33.288Z,1012.36
2017-11-08T02:06:42.577Z,1012.32
2017-11-08T02:07:51.558Z,1012.37
2017-11-08T02:09:01.171Z,1012.39
2017-11-08T02:10:10.166Z,1012.43
2017-11-08T02:11:19.452Z,1012.44
2017-11-08T02:12:28.104Z,1012.44
2017-11-08T02:13:37.076Z,1012.49
2017-11-08T02:14:46.048Z,1012.45
2017-11-08T02:15:55.026Z,1012.46
2017-11-08T02:17:03.993Z,1012.42
2017-11-08T02:18:13.272Z,1012.41
2017-11-08T02:19:22.237Z,1012.37
2017-11-08T02:20:31.552Z,1012.38
2017-11-08T02:21:40.580Z,1012.33
2017-11-08T02:22:49.237Z,1012.32
2017-11-08T02:23:58.204Z,1012.29
2017-11-08T02:25:06.918Z,1012.25
2017-11-08T02:26:16.217Z,1012.25
2017-11-08T02:27:25.214Z,1012.25
2017-11-08T02:28:35.163Z,1012.21
2017-11-08T02:29:44.134Z,1012.28
2017-11-08T02:30:54.088Z,1012.26
2017-11-08T02:32:03.392Z,1012.29
2017-11-08T02:33:13.029Z,1012.31
2017-11-08T02:34:22.360Z,1012.29
2017-11-08T02:35:31.349Z,1012.29
2017-11-08T02:36:40.331Z,1012.29
2017-11-08T02:37:49.630Z,1012.35
2017-11-08T02:38:59.235Z,1012.32
2017-11-08T02:40:08.229Z,1012.29
2017-11-08T02:41:17.535Z,1012.34
2017-11-08T02:42:26.176Z,1012.33
2017-11-08T02:43:35.812Z,1012.3
2017-11-08T02:44:45.438Z,1012.26
2017-11-08T02:45:54.741Z,1012.24
2017-11-08T02:47:04.056Z,1012.26
2017-11-08T02:48:13.675Z,1012.31
2017-11-08T02:49:22.982Z,1012.28
2017-11-08T02:50:31.617Z,1012.28
2017-11-08T02:51:40.280Z,1012.32
2017-11-08T02:52:49.243Z,1012.34
2017-11-08T02:53:58.206Z,1012.31
2017-11-08T02:55:07.181Z,1012.32
2017-11-08T02:56:17.497Z,1012.28
2017-11-08T02:57:26.796Z,1012.28
2017-11-08T02:58:36.434Z,1012.21
2017-11-08T02:59:45.384Z,1012.22
2017-11-08T03:00:55.023Z,1012.14
2017-11-08T03:02:04.320Z,1012.11
2017-11-08T03:03:13.619Z,1012.1
2017-11-08T03:04:23.256Z,1012.06
2017-11-08T03:05:32.208Z,1012.03
2017-11-08T03:06:41.162Z,1011.99
2017-11-08T03:07:50.777Z,1012
2017-11-08T03:08:59.744Z,1011.95
2017-11-08T03:10:08.391Z,1011.93
2017-11-08T03:11:17.676Z,1011.91
2017-11-08T03:12:26.329Z,1011.9
2017-11-08T03:13:35.291Z,1011.92
2017-11-08T03:14:44.263Z,1011.95
2017-11-08T03:15:53.228Z,1011.93
2017-11-08T03:17:02.196Z,1011.93
2017-11-08T03:18:10.856Z,1011.94
2017-11-08T03:19:20.480Z,1011.97
2017-11-08T03:20:29.772Z,1011.94
2017-11-08T03:21:39.053Z,1011.99
2017-11-08T03:22:48.353Z,1012.01
2017-11-08T03:23:57.327Z,1012.04
2017-11-08T03:25:05.963Z,1012.01
2017-11-08T03:26:14.921Z,1011.97
2017-11-08T03:27:23.893Z,1012
2017-11-08T03:28:32.532Z,1011.97
2017-11-08T03:29:41.172Z,1011.95
2017-11-08T03:30:50.138Z,1011.97
2017-11-08T03:31:59.801Z,1011.92
2017-11-08T03:33:08.440Z,1011.92
2017-11-08T03:34:18.165Z,1011.92
2017-11-08T03:35:27.127Z,1011.94
2017-11-08T03:36:36.089Z,1011.89
2017-11-08T03:37:45.407Z,1011.92
2017-11-08T03:38:54.695Z,1011.92
2017-11-08T03:40:03.664Z,1011.9
2017-11-08T03:41:13.289Z,1011.9
2017-11-08T03:42:21.929Z,1011.91
2017-11-08T03:43:30.904Z,1011.93
2017-11-08T03:44:39.535Z,1011.88
2017-11-08T03:45:48.506Z,1011.88
2017-11-08T03:46:57.136Z,1011.91
2017-11-08T03:48:06.494Z,1011.88
2017-11-08T03:49:16.104Z,1011.89
2017-11-08T03:50:25.076Z,1011.86
2017-11-08T03:51:34.734Z,1011.89
2017-11-08T03:52:43.365Z,1011.91
2017-11-08T03:53:52.322Z,1011.97
2017-11-08T03:55:00.957Z,1011.94
2017-11-08T03:56:09.919Z,1011.97
2017-11-08T03:57:18.885Z,1011.98
2017-11-08T03:58:27.860Z,1011.99
2017-11-08T03:59:36.503Z,1011.98
2017-11-08T04:00:45.783Z,1012
2017-11-08T04:01:55.105Z,1011.99
2017-11-08T04:03:04.396Z,1012.04
2017-11-08T04:04:13.367Z,1012.02
2017-11-08T04:05:22.986Z,1011.97
2017-11-08T04:06:32.596Z,1011.95
2017-11-08T04:07:41.238Z,1011.92
2017-11-08T04:08:50.526Z,1011.92
2017-11-08T04:09:59.817Z,1011.93
2017-11-08T04:11:09.143Z,1011.91
2017-11-08T04:12:18.105Z,1011.94
2017-11-08T04:13:27.409Z,1011.94
2017-11-08T04:14:36.039Z,1011.96
2017-11-08T04:15:45.656Z,1011.92
2017-11-08T04:16:54.306Z,1011.93
2017-11-08T04:18:03.936Z,1011.9
2017-11-08T04:19:12.907Z,1011.91
2017-11-08T04:20:22.196Z,1011.89
2017-11-08T04:21:31.173Z,1011.91
2017-11-08T04:22:39.824Z,1011.89
2017-11-08T04:23:49.128Z,1011.87
2017-11-08T04:24:58.093Z,1011.92
2017-11-08T04:26:07.721Z,1011.96
2017-11-08T04:27:17.047Z,1012.01
2017-11-08T04:28:26.035Z,1012.04
2017-11-08T04:29:35.011Z,1012.06
2017-11-08T04:30:44.294Z,1012.05
2017-11-08T04:31:53.280Z,1012.04
2017-11-08T04:33:02.254Z,1012.04
2017-11-08T04:34:11.228Z,1012.04
2017-11-08T04:35:20.519Z,1012.08
2017-11-08T04:36:29.831Z,1012.07
2017-11-08T04:37:38.805Z,1012.1
2017-11-08T04:38:48.745Z,1012.09
2017-11-08T04:39:58.037Z,1012.12
2017-11-08T04:41:07.060Z,1012.09
2017-11-08T04:42:16.346Z,1012.13
2017-11-08T04:43:25.002Z,1012.21
2017-11-08T04:44:33.980Z,1012.13
2017-11-08T04:45:42.629Z,1012.17
2017-11-08T04:46:51.931Z,1012.12
2017-11-08T04:48:01.220Z,1012.11
2017-11-08T04:49:10.180Z,1012.09
2017-11-08T04:50:19.151Z,1012.06
2017-11-08T04:51:27.789Z,1012.01
2017-11-08T04:52:36.430Z,1012.04
2017-11-08T04:53:45.402Z,1012.05
2017-11-08T04:54:55.338Z,1012.06
2017-11-08T04:56:04.965Z,1012.06
2017-11-08T04:57:14.594Z,1012.09
2017-11-08T04:58:23.230Z,1012.14
2017-11-08T04:59:32.197Z,1012.15
2017-11-08T05:00:40.838Z,1012.21
2017-11-08T05:01:50.124Z,1012.21
2017-11-08T05:02:59.106Z,1012.14
2017-11-08T05:04:08.071Z,1012.08
2017-11-08T05:05:16.722Z,1012.1
2017-11-08T05:06:25.681Z,1012.08
2017-11-08T05:07:34.641Z,1012.05
2017-11-08T05:08:43.602Z,1012.01
2017-11-08T05:09:52.571Z,1012.02
2017-11-08T05:11:01.221Z,1011.96
2017-11-08T05:12:10.193Z,1011.92
2017-11-08T05:13:19.476Z,1011.91
2017-11-08T05:14:28.116Z,1011.93
2017-11-08T05:15:37.087Z,1011.96
2017-11-08T05:16:46.064Z,1011.93
2017-11-08T05:17:55.038Z,1011.94
2017-11-08T05:19:04.681Z,1011.98
2017-11-08T05:20:13.969Z,1012.04
2017-11-08T05:21:22.602Z,1012.03
2017-11-08T05:22:31.242Z,1012.01
2017-11-08T05:23:40.272Z,1012.08
2017-11-08T05:24:49.251Z,1012.04
2017-11-08T05:25:58.545Z,1012.06
2017-11-08T05:27:07.892Z,1012.09
2017-11-08T05:28:16.861Z,1012.14
2017-11-08T05:29:25.826Z,1012.17
2017-11-08T05:30:34.473Z,1012.15
2017-11-08T05:31:43.432Z,1012.2
2017-11-08T05:32:52.739Z,1012.2
2017-11-08T05:34:01.704Z,1012.2
2017-11-08T05:35:10.389Z,1012.18
2017-11-08T05:36:19.704Z,1012.19
2017-11-08T05:37:28.348Z,1012.2
2017-11-08T05:38:37.309Z,1012.22
2017-11-08T05:39:46.276Z,1012.17
2017-11-08T05:40:55.564Z,1012.15
2017-11-08T05:42:04.583Z,1012.11
2017-11-08T05:43:13.218Z,1012.14
2017-11-08T05:44:21.867Z,1012.12
2017-11-08T05:45:30.498Z,1012.09
2017-11-08T05:46:39.469Z,1012.13
2017-11-08T05:47:48.765Z,1012.21
2017-11-08T05:48:57.730Z,1012.19
2017-11-08T05:50:07.387Z,1012.29
2017-11-08T05:51:16.697Z,1012.22
2017-11-08T05:52:25.345Z,1012.23
2017-11-08T05:53:34.008Z,1012.2
2017-11-08T05:54:43.317Z,1012.29
2017-11-08T05:55:51.987Z,1012.23
2017-11-08T05:57:01.956Z,1012.25
2017-11-08T05:58:10.912Z,1012.25
2017-11-08T05:59:20.550Z,1012.26
2017-11-08T06:00:29.214Z,1012.25
2017-11-08T06:01:38.510Z,1012.29
2017-11-08T06:02:47.809Z,1012.29
2017-11-08T06:03:57.475Z,1012.31
2017-11-08T06:05:07.416Z,1012.31
2017-11-08T06:06:16.719Z,1012.26
2017-11-08T06:07:25.697Z,1012.35
2017-11-08T06:08:34.678Z,1012.28
2017-11-08T06:09:43.634Z,1012.31
2017-11-08T06:10:52.281Z,1012.29
2017-11-08T06:12:01.254Z,1012.27
2017-11-08T06:13:09.925Z,1012.3
2017-11-08T06:14:18.571Z,1012.29
2017-11-08T06:15:27.577Z,1012.28
2017-11-08T06:16:36.560Z,1012.31
2017-11-08T06:17:45.950Z,1012.34
2017-11-08T06:18:54.938Z,1012.27
2017-11-08T06:20:04.276Z,1012.26
2017-11-08T06:21:12.912Z,1012.29
2017-11-08T06:22:21.891Z,1012.35
2017-11-08T06:23:31.191Z,1012.35
2017-11-08T06:24:39.852Z,1012.37
2017-11-08T06:25:49.297Z,1012.4
2017-11-08T06:26:58.391Z,1012.38
2017-11-08T06:28:07.099Z,1012.38
2017-11-08T06:29:16.061Z,1012.39
2017-11-08T06:30:25.037Z,1012.39
2017-11-08T06:31:33.705Z,1012.38
2017-11-08T06:32:42.986Z,1012.36
2017-11-08T06:33:51.963Z,1012.37
2017-11-08T06:35:01.004Z,1012.31
2017-11-08T06:36:10.665Z,1012.35
2017-11-08T06:37:19.295Z,1012.33
2017-11-08T06:38:28.267Z,1012.32
2017-11-08T06:39:37.572Z,1012.34
2017-11-08T06:40:46.859Z,1012.38
2017-11-08T06:41:55.822Z,1012.41
2017-11-08T06:43:04.814Z,1012.41
2017-11-08T06:44:13.768Z,1012.45
2017-11-08T06:45:22.754Z,1012.48
2017-11-08T06:46:32.750Z,1012.49
2017-11-08T06:47:41.380Z,1012.55
2017-11-08T06:48:50.694Z,1012.55
2017-11-08T06:49:59.654Z,1012.55
2017-11-08T06:51:08.299Z,1012.58
2017-11-08T06:52:17.299Z,1012.59
2017-11-08T06:53:26.955Z,1012.57
2017-11-08T06:54:35.922Z,1012.58
2017-11-08T06:55:45.227Z,1012.57
2017-11-08T06:56:54.868Z,1012.59
2017-11-08T06:58:03.494Z,1012.64
2017-11-08T06:59:12.464Z,1012.62
2017-11-08T07:00:21.433Z,1012.65
2017-11-08T07:01:30.755Z,1012.7
2017-11-08T07:02:39.425Z,1012.71
2017-11-08T07:03:48.097Z,1012.71
2017-11-08T07:04:57.071Z,1012.74
2017-11-08T07:06:05.720Z,1012.73
2017-11-08T07:07:15.086Z,1012.75
2017-11-08T07:08:24.386Z,1012.74
2017-11-08T07:09:33.697Z,1012.73
2017-11-08T07:10:43.641Z,1012.73
2017-11-08T07:11:53.271Z,1012.69
2017-11-08T07:13:02.232Z,1012.75
2017-11-08T07:14:11.190Z,1012.76
2017-11-08T07:15:20.155Z,1012.81
2017-11-08T07:16:29.510Z,1012.77
2017-11-08T07:17:39.135Z,1012.8
2017-11-08T07:18:48.446Z,1012.8
2017-11-08T07:19:57.121Z,1012.83
2017-11-08T07:21:06.090Z,1012.85
2017-11-08T07:22:15.708Z,1012.86
2017-11-08T07:23:25.339Z,1012.86
2017-11-08T07:24:35.292Z,1012.83
2017-11-08T07:25:44.586Z,1012.82
2017-11-08T07:26:53.575Z,1012.84
2017-11-08T07:28:02.539Z,1012.83
2017-11-08T07:29:12.156Z,1012.85
2017-11-08T07:30:21.122Z,1012.89
2017-11-08T07:31:30.115Z,1012.92
2017-11-08T07:32:39.410Z,1012.93
2017-11-08T07:33:48.701Z,1012.93
2017-11-08T07:34:57.677Z,1012.96
2017-11-08T07:36:06.659Z,1012.95
2017-11-08T07:37:15.986Z,1012.98
2017-11-08T07:38:24.960Z,1012.99
2017-11-08T07:39:34.960Z,1012.97
2017-11-08T07:40:43.935Z,1013.02
2017-11-08T07:41:53.564Z,1013.01
2017-11-08T07:43:03.199Z,1012.98
2017-11-08T07:44:12.193Z,1013
2017-11-08T07:45:21.188Z,1013
2017-11-08T07:46:30.516Z,1012.98
2017-11-08T07:47:40.163Z,1012.98
2017-11-08T07:48:49.149Z,1012.95
2017-11-08T07:49:57.803Z,1012.95
2017-11-08T07:51:06.450Z,1012.93
2017-11-08T07:52:15.435Z,1012.9
2017-11-08T07:53:24.730Z,1012.87
2017-11-08T07:54:33.379Z,1012.92
2017-11-08T07:55:43.192Z,1012.95
2017-11-08T07:56:52.109Z,1013
2017-11-08T07:58:01.957Z,1012.98
2017-11-08T07:59:11.685Z,1013
2017-11-08T08:00:20.764Z,1013
2017-11-08T08:01:29.566Z,1013
2017-11-08T08:02:38.558Z,1012.99
2017-11-08T08:03:47.863Z,1012.99
2017-11-08T08:04:56.934Z,1013.02
2017-11-08T08:06:05.926Z,1012.99
2017-11-08T08:07:14.993Z,1013.03
2017-11-08T08:08:24.734Z,1013.04
2017-11-08T08:09:33.467Z,1013.05
2017-11-08T08:10:42.546Z,1013.06
2017-11-08T08:11:51.586Z,1013.05
2017-11-08T08:13:00.369Z,1013.04
2017-11-08T08:14:10.076Z,1013.07
2017-11-08T08:15:18.813Z,1013.09
2017-11-08T08:16:28.213Z,1013.17
2017-11-08T08:17:38.289Z,1013.16
2017-11-08T08:18:47.625Z,1013.16
2017-11-08T08:19:57.267Z,1013.18
2017-11-08T08:21:06.308Z,1013.17
2017-11-08T08:22:15.317Z,1013.16
2017-11-08T08:23:24.306Z,1013.23
2017-11-08T08:24:33.419Z,1013.19
2017-11-08T08:25:42.442Z,1013.2
2017-11-08T08:26:51.835Z,1013.21
2017-11-08T08:28:00.852Z,1013.25
2017-11-08T08:29:10.480Z,1013.25
2017-11-08T08:30:20.230Z,1013.28
2017-11-08T08:31:29.291Z,1013.31
2017-11-08T08:32:38.433Z,1013.31
2017-11-08T08:33:47.464Z,1013.34
2017-11-08T08:34:56.178Z,1013.34
2017-11-08T08:36:05.552Z,1013.3
2017-11-08T08:37:14.961Z,1013.32
2017-11-08T08:38:24.343Z,1013.32
2017-11-08T08:39:33.322Z,1013.32
2017-11-08T08:40:42.760Z,1013.32
2017-11-08T08:41:51.515Z,1013.35
2017-11-08T08:43:00.549Z,1013.37
2017-11-08T08:44:09.896Z,1013.36
2017-11-08T08:45:18.893Z,1013.36
2017-11-08T08:46:27.881Z,1013.35
2017-11-08T08:47:37.178Z,1013.39
2017-11-08T08:48:46.459Z,1013.38
2017-11-08T08:49:55.761Z,1013.42
2017-11-08T08:51:04.418Z,1013.39
2017-11-08T08:52:13.388Z,1013.4
2017-11-08T08:53:22.362Z,1013.38
2017-11-08T08:54:31.344Z,1013.4
2017-11-08T08:55:40.331Z,1013.35
2017-11-08T08:56:49.645Z,1013.37
2017-11-08T08:57:58.297Z,1013.35
2017-11-08T08:59:06.953Z,1013.36
2017-11-08T09:00:15.929Z,1013.37
2017-11-08T09:01:24.907Z,1013.35
2017-11-08T09:02:33.574Z,1013.38
2017-11-08T09:03:42.226Z,1013.39
2017-11-08T09:04:51.209Z,1013.4
2017-11-08T09:06:01.176Z,1013.43
2017-11-08T09:07:10.463Z,1013.45
2017-11-08T09:08:19.781Z,1013.45
2017-11-08T09:09:28.810Z,1013.45
2017-11-08T09:10:37.786Z,1013.51
2017-11-08T09:11:47.425Z,1013.47
2017-11-08T09:12:57.069Z,1013.57
2017-11-08T09:14:05.736Z,1013.54
2017-11-08T09:15:15.047Z,1013.53
2017-11-08T09:16:23.749Z,1013.57
2017-11-08T09:17:33.119Z,1013.55
2017-11-08T09:18:42.106Z,1013.59
2017-11-08T09:19:51.110Z,1013.62
2017-11-08T09:21:00.406Z,1013.61
2017-11-08T09:22:09.064Z,1013.64
2017-11-08T09:23:18.388Z,1013.63
2017-11-08T09:24:28.355Z,1013.61
2017-11-08T09:25:37.686Z,1013.58
2017-11-08T09:26:47.348Z,1013.57
2017-11-08T09:27:56.335Z,1013.58
2017-11-08T09:29:05.966Z,1013.54
2017-11-08T09:30:14.960Z,1013.57
2017-11-08T09:31:23.952Z,1013.53
2017-11-08T09:32:33.605Z,1013.52
2017-11-08T09:33:42.587Z,1013.52
2017-11-08T09:34:51.978Z,1013.56
2017-11-08T09:36:01.615Z,1013.54
2017-11-08T09:37:11.817Z,1013.55
2017-11-08T09:38:21.113Z,1013.58
2017-11-08T09:39:30.084Z,1013.57
2017-11-08T09:40:39.069Z,1013.6
2017-11-08T09:41:48.717Z,1013.6
2017-11-08T09:42:57.694Z,1013.6
2017-11-08T09:44:06.350Z,1013.6
2017-11-08T09:45:15.641Z,1013.61
2017-11-08T09:46:24.344Z,1013.61
2017-11-08T09:47:33.008Z,1013.57
2017-11-08T09:48:41.984Z,1013.59
2017-11-08T09:49:50.690Z,1013.63
2017-11-08T09:50:59.345Z,1013.61
2017-11-08T09:52:09.002Z,1013.6
2017-11-08T09:53:17.981Z,1013.57
2017-11-08T09:54:26.648Z,1013.58
2017-11-08T09:55:35.998Z,1013.58
2017-11-08T09:56:45.035Z,1013.61
2017-11-08T09:57:53.776Z,1013.59
2017-11-08T09:59:02.419Z,1013.59
2017-11-08T10:00:11.716Z,1013.61
2017-11-08T10:01:20.694Z,1013.58
2017-11-08T10:02:29.347Z,1013.57
2017-11-08T10:03:38.342Z,1013.59
2017-11-08T10:04:47.320Z,1013.59
2017-11-08T10:05:55.968Z,1013.59
2017-11-08T10:07:04.976Z,1013.59
2017-11-08T10:08:13.969Z,1013.6
2017-11-08T10:09:22.635Z,1013.58
2017-11-08T10:10:31.697Z,1013.58
2017-11-08T10:11:40.324Z,1013.56
2017-11-08T10:12:49.691Z,1013.61
2017-11-08T10:13:58.307Z,1013.61
2017-11-08T10:15:06.932Z,1013.64
2017-11-08T10:16:15.917Z,1013.67
2017-11-08T10:17:25.536Z,1013.69
2017-11-08T10:18:35.163Z,1013.7
2017-11-08T10:19:44.311Z,1013.7
2017-11-08T10:20:53.963Z,1013.69
2017-11-08T10:22:02.929Z,1013.72
2017-11-08T10:23:11.935Z,1013.76
2017-11-08T10:24:20.899Z,1013.74
2017-11-08T10:25:29.871Z,1013.75
2017-11-08T10:26:38.553Z,1013.8
2017-11-08T10:27:47.519Z,1013.75
2017-11-08T10:28:57.164Z,1013.81
2017-11-08T10:30:06.479Z,1013.81
2017-11-08T10:31:15.847Z,1013.86
2017-11-08T10:32:25.458Z,1013.85
2017-11-08T10:33:34.120Z,1013.81
2017-11-08T10:34:42.761Z,1013.84
2017-11-08T10:35:51.418Z,1013.83
2017-11-08T10:37:00.384Z,1013.86
2017-11-08T10:38:09.033Z,1013.86
2017-11-08T10:39:18.032Z,1013.91
2017-11-08T10:40:27.332Z,1013.9
2017-11-08T10:41:36.648Z,1013.89
2017-11-08T10:42:45.602Z,1013.89
2017-11-08T10:43:54.904Z,1013.9
2017-11-08T10:45:04.874Z,1013.92
2017-11-08T10:46:14.204Z,1013.91
2017-11-08T10:47:23.508Z,1013.89
2017-11-08T10:48:33.140Z,1013.9
2017-11-08T10:49:42.460Z,1013.9
2017-11-08T10:50:51.767Z,1013.92
2017-11-08T10:52:00.805Z,1013.9
2017-11-08T10:53:10.149Z,1013.93
2017-11-08T10:54:19.787Z,1013.9
2017-11-08T10:55:29.090Z,1013.89
2017-11-08T10:56:39.050Z,1013.94
2017-11-08T10:57:48.357Z,1013.92
2017-11-08T10:58:58.007Z,1014
2017-11-08T11:00:08.008Z,1013.97
2017-11-08T11:01:16.655Z,1013.97
2017-11-08T11:02:25.638Z,1014.01
2017-11-08T11:03:35.310Z,1013.95
2017-11-08T11:04:44.636Z,1013.97
2017-11-08T11:05:54.969Z,1013.94
2017-11-08T11:07:04.619Z,1013.98
2017-11-08T11:08:13.289Z,1013.93
2017-11-08T11:09:22.930Z,1013.94
2017-11-08T11:10:31.908Z,1013.92
2017-11-08T11:11:40.904Z,1013.96
2017-11-08T11:12:49.916Z,1013.92
2017-11-08T11:13:59.557Z,1013.93
2017-11-08T11:15:08.874Z,1013.91
2017-11-08T11:16:18.832Z,1013.9
2017-11-08T11:17:28.472Z,1013.89
2017-11-08T11:18:37.782Z,1013.9
2017-11-08T11:19:46.461Z,1013.93
2017-11-08T11:20:56.098Z,1013.95
2017-11-08T11:22:05.422Z,1013.93
2017-11-08T11:23:14.752Z,1013.91
2017-11-08T11:24:24.093Z,1013.91
2017-11-08T11:25:33.399Z,1013.89
2017-11-08T11:26:43.030Z,1013.93
2017-11-08T11:27:52.083Z,1013.93
2017-11-08T11:29:02.065Z,1013.93
2017-11-08T11:30:12.376Z,1013.96
2017-11-08T11:31:21.683Z,1013.98
2017-11-08T11:32:30.687Z,1013.92
2017-11-08T11:33:40.677Z,1013.92
2017-11-08T11:34:50.310Z,1013.92
2017-11-08T11:35:59.629Z,1013.9
2017-11-08T11:37:09.944Z,1013.99
2017-11-08T11:38:19.574Z,1013.99
2017-11-08T11:39:29.227Z,1013.95
2017-11-08T11:40:38.214Z,1013.97
2017-11-08T11:41:47.541Z,1014.02
2017-11-08T11:42:56.904Z,1014.05
2017-11-08T11:44:06.580Z,1014.03
2017-11-08T11:45:15.919Z,1014.09
2017-11-08T11:46:25.963Z,1014.07
2017-11-08T11:47:35.917Z,1014.05
2017-11-08T11:48:45.566Z,1014.03
2017-11-08T11:49:55.874Z,1014.03
2017-11-08T11:51:05.180Z,1014.03
2017-11-08T11:52:14.150Z,1013.99
2017-11-08T11:53:23.783Z,1014
2017-11-08T11:54:33.424Z,1013.99
2017-11-08T11:55:42.399Z,1014
2017-11-08T11:56:52.085Z,1013.96
2017-11-08T11:58:01.384Z,1013.94
2017-11-08T11:59:10.046Z,1013.93
2017-11-08T12:00:19.361Z,1013.94
2017-11-08T12:01:28.999Z,1013.94
2017-11-08T12:02:38.647Z,1013.93
2017-11-08T12:03:47.951Z,1013.91
2017-11-08T12:04:57.915Z,1013.91
2017-11-08T12:06:07.222Z,1013.91
2017-11-08T12:07:16.202Z,1013.92
2017-11-08T12:08:25.520Z,1013.92
2017-11-08T12:09:34.849Z,1013.93
2017-11-08T12:10:43.839Z,1013.98
2017-11-08T12:11:53.152Z,1014
2017-11-08T12:13:02.802Z,1013.99
2017-11-08T12:14:12.115Z,1014.07
2017-11-08T12:15:21.429Z,1014.01
2017-11-08T12:16:30.399Z,1014.07
2017-11-08T12:17:40.056Z,1014.02
2017-11-08T12:18:49.475Z,1014.04
2017-11-08T12:19:59.107Z,1014.07
2017-11-08T12:21:08.104Z,1014.06
2017-11-08T12:22:17.417Z,1014.07
2017-11-08T12:23:26.723Z,1014.04
2017-11-08T12:24:36.043Z,1014.05
2017-11-08T12:25:46.005Z,1014.01
2017-11-08T12:26:55.999Z,1014.02
2017-11-08T12:28:04.647Z,1013.97
2017-11-08T12:29:14.622Z,1014
2017-11-08T12:30:24.247Z,1013.97
2017-11-08T12:31:33.570Z,1013.99
2017-11-08T12:32:42.548Z,1013.98
2017-11-08T12:33:52.203Z,1014
2017-11-08T12:35:01.856Z,1013.98
2017-11-08T12:36:11.498Z,1013.96
2017-11-08T12:37:20.816Z,1013.97
2017-11-08T12:38:30.781Z,1013.97
2017-11-08T12:39:40.104Z,1013.97
2017-11-08T12:40:49.732Z,1013.98
2017-11-08T12:41:59.705Z,1013.93
2017-11-08T12:43:09.007Z,1013.92
2017-11-08T12:44:18.308Z,1013.96
2017-11-08T12:45:27.646Z,1013.94
2017-11-08T12:46:36.956Z,1013.95
2017-11-08T12:47:46.717Z,1013.94
2017-11-08T12:48:56.017Z,1013.96
2017-11-08T12:50:05.991Z,1013.98
2017-11-08T12:51:15.678Z,1013.92
2017-11-08T12:52:25.322Z,1013.93
2017-11-08T12:53:34.980Z,1013.96
2017-11-08T12:54:44.313Z,1013.98
2017-11-08T12:55:53.628Z,1013.95
2017-11-08T12:57:03.267Z,1013.93
2017-11-08T12:58:12.572Z,1013.93
2017-11-08T12:59:22.012Z,1013.94
2017-11-08T13:00:31.336Z,1013.91
2017-11-08T13:01:40.973Z,1013.92
2017-11-08T13:02:50.337Z,1013.96
2017-11-08T13:04:00.636Z,1013.95
2017-11-08T13:05:10.944Z,1013.96
2017-11-08T13:06:20.936Z,1013.98
2017-11-08T13:07:30.910Z,1014.01
2017-11-08T13:08:40.883Z,1013.96
2017-11-08T13:09:49.860Z,1013.96
2017-11-08T13:10:59.502Z,1013.94
2017-11-08T13:12:08.824Z,1013.94
2017-11-08T13:13:18.584Z,1013.93
2017-11-08T13:14:27.961Z,1013.91
2017-11-08T13:15:36.950Z,1013.94
2017-11-08T13:16:46.279Z,1013.92
2017-11-08T13:17:55.289Z,1013.96
2017-11-08T13:19:04.952Z,1013.94
2017-11-08T13:20:14.269Z,1013.92
2017-11-08T13:21:23.913Z,1013.92
2017-11-08T13:22:32.546Z,1013.9
2017-11-08T13:23:41.862Z,1013.92
2017-11-08T13:24:50.861Z,1013.91
2017-11-08T13:26:00.177Z,1013.94
2017-11-08T13:27:08.835Z,1013.92
2017-11-08T13:28:18.173Z,1013.96
2017-11-08T13:29:26.822Z,1013.92
2017-11-08T13:30:35.797Z,1013.94
2017-11-08T13:31:45.450Z,1013.97
2017-11-08T13:32:55.430Z,1014
2017-11-08T13:34:04.755Z,1014.04
2017-11-08T13:35:14.391Z,1014.05
2017-11-08T13:36:23.719Z,1014.06
2017-11-08T13:37:33.029Z,1014.04
2017-11-08T13:38:41.997Z,1014.06
2017-11-08T13:39:51.331Z,1014.03
2017-11-08T13:41:00.996Z,1014.05
2017-11-08T13:42:09.982Z,1014.05
2017-11-08T13:43:19.306Z,1014.02
2017-11-08T13:44:28.289Z,1014.02
2017-11-08T13:45:37.602Z,1014.03
2017-11-08T13:46:47.266Z,1014.02
2017-11-08T13:47:56.578Z,1013.99
2017-11-08T13:49:05.595Z,1014.03
2017-11-08T13:50:14.959Z,1014.06
2017-11-08T13:51:24.601Z,1014.08
2017-11-08T13:52:33.594Z,1014.1
2017-11-08T13:53:42.900Z,1014.1
2017-11-08T13:54:52.575Z,1014.13
2017-11-08T13:56:02.542Z,1014.15
2017-11-08T13:57:12.187Z,1014.15
2017-11-08T13:58:21.836Z,1014.19
2017-11-08T13:59:31.879Z,1014.19
2017-11-08T14:00:41.855Z,1014.19